Amboy, Washington
Current Conditions -  °F | °C
As of 8:53 PM on Tuesday 21 Oct 2014 (Local Time) from KSPB Reporting Station
Overcast Overcast  
Wind Chill: 56°   Ceiling: 6000
Heat Index: 56°   Visibility: 10mi
Dew Point: 51°   Wind: 0mph
Humidity: 84%   Direction: NA
Pressure: 29.86"   Gusts: NA
Location:  45.91°N, 122.45°W
Report Text: KSPB 220353Z AUTO 00000KT 10SM OVC060 13/11 A2986 RMK AO2 SLP112 T01330106
Loading
Personal Weather Stations






























Interactive Weather Map
Tropical Storm Tracking
New forecast layout! Learn more

10-Day Weather Forecast

Advertisements
Track Severe Weather on mobile